Time;durP1;ratioP1;P1;durP2;ratioP2;P2;SDS_P1;SDS_P2;PMS_P1;PMS_P2;Temp;Humidity;BMP_temperature;BMP_pressure;BME280_temperature;BME280_humidity;BME280_pressure;Samples;Min_cycle;Max_cycle;Signal;HPM_P1;HPM_P2
2022/08/27 00:00:17;;;;;;;4.05;1.35;;;;;;;;;;5008063;28;20065;-79
2022/08/27 00:02:43;;;;;;;3.40;1.40;;;;;;;;;;5008405;28;20115;-80
2022/08/27 00:05:10;;;;;;;2.35;1.10;;;;;;;;;;5008370;28;20032;-79
2022/08/27 00:07:36;;;;;;;5.43;1.48;;;;;;;;;;5008503;28;20026;-79
2022/08/27 00:10:04;;;;;;;3.83;1.30;;;;;;;;;;5008152;28;20087;-80
2022/08/27 00:12:29;;;;;;;2.67;1.33;;;;;;;;;;5007820;28;20116;-79
2022/08/27 00:14:55;;;;;;;4.03;1.30;;;;;;;;;;5007898;28;20129;-78
2022/08/27 00:17:21;;;;;;;1.73;1.20;;;;;;;;;;5007368;28;20030;-79
2022/08/27 00:19:46;;;;;;;3.33;1.30;;;;;;;;;;5008068;28;20033;-80
2022/08/27 00:22:12;;;;;;;3.15;1.20;;;;;;;;;;5007950;28;20673;-78
2022/08/27 00:24:37;;;;;;;4.20;1.35;;;;;;;;;;4990447;28;20225;-79
2022/08/27 00:27:03;;;;;;;2.67;1.20;;;;;;;;;;5007944;28;20036;-80
2022/08/27 00:29:29;;;;;;;4.70;1.30;;;;;;;;;;5007796;28;20026;-80
2022/08/27 00:31:54;;;;;;;4.65;1.30;;;;;;;;;;5007459;28;20086;-79
2022/08/27 00:34:21;;;;;;;3.53;1.50;;;;;;;;;;5007626;28;20434;-79
2022/08/27 00:36:47;;;;;;;2.45;1.17;;;;;;;;;;5007644;28;20034;-79
2022/08/27 00:39:13;;;;;;;3.47;1.25;;;;;;;;;;5007678;28;20048;-79
2022/08/27 00:41:40;;;;;;;2.55;1.30;;;;;;;;;;5007656;28;20065;-79
2022/08/27 00:44:06;;;;;;;2.50;1.10;;;;;;;;;;5007447;28;20061;-78
2022/08/27 00:46:37;;;;;;;3.38;1.25;;;;;;;;;;5007660;28;20030;-77
2022/08/27 00:49:30;;;;;;;4.13;1.42;;;;;;;;;;5007831;28;20101;-78
2022/08/27 00:52:02;;;;;;;2.33;1.15;;;;;;;;;;5007271;28;20367;-77
2022/08/27 00:54:28;;;;;;;2.15;1.10;;;;;;;;;;5007368;28;20497;-79
2022/08/27 00:56:54;;;;;;;2.20;1.20;;;;;;;;;;5007300;28;20053;-79
2022/08/27 00:59:23;;;;;;;2.92;1.20;;;;;;;;;;5007577;28;20026;-79
2022/08/27 01:04:34;;;;;;;4.47;1.40;;;;;;;;;;5007476;28;20037;-79
2022/08/27 01:07:01;;;;;;;6.93;1.33;;;;;;;;;;5007290;28;20029;-79
2022/08/27 01:09:27;;;;;;;2.63;1.15;;;;;;;;;;5007105;28;20022;-79
2022/08/27 01:11:56;;;;;;;4.55;1.45;;;;;;;;;;5006952;28;20037;-79
2022/08/27 01:14:22;;;;;;;2.33;1.20;;;;;;;;;;5007351;28;20086;-79
2022/08/27 01:16:53;;;;;;;5.93;1.23;;;;;;;;;;5007443;28;20029;-79
2022/08/27 01:19:57;;;;;;;4.32;1.40;;;;;;;;;;5007401;28;20026;-75
2022/08/27 01:22:49;;;;;;;4.03;1.40;;;;;;;;;;5007105;28;20061;-80
2022/08/27 01:25:17;;;;;;;3.53;1.17;;;;;;;;;;5007251;28;20105;-79
2022/08/27 01:27:44;;;;;;;2.58;1.20;;;;;;;;;;5006688;28;20018;-79
2022/08/27 01:30:13;;;;;;;4.57;1.20;;;;;;;;;;5009778;28;20049;-78
2022/08/27 01:32:42;;;;;;;5.15;1.25;;;;;;;;;;5010606;28;20114;-78
2022/08/27 01:35:09;;;;;;;2.80;1.20;;;;;;;;;;5010585;28;20022;-78
2022/08/27 01:37:36;;;;;;;3.60;1.35;;;;;;;;;;5010623;28;20033;-79
2022/08/27 01:40:02;;;;;;;5.93;1.60;;;;;;;;;;5010606;28;20033;-80
2022/08/27 01:42:38;;;;;;;4.78;1.30;;;;;;;;;;5010023;28;20022;-78
2022/08/27 01:45:06;;;;;;;2.53;1.33;;;;;;;;;;5010336;28;20497;-79
2022/08/27 01:47:32;;;;;;;2.63;1.23;;;;;;;;;;5010441;28;20030;-79
2022/08/27 01:49:58;;;;;;;2.83;1.00;;;;;;;;;;5010358;28;20521;-79
2022/08/27 01:52:26;;;;;;;4.30;1.30;;;;;;;;;;5010237;28;20064;-79
2022/08/27 01:54:52;;;;;;;2.25;1.10;;;;;;;;;;5010475;28;20057;-79
2022/08/27 01:57:18;;;;;;;2.15;1.13;;;;;;;;;;5010045;28;20464;-79
2022/08/27 01:59:44;;;;;;;2.88;1.17;;;;;;;;;;5010263;28;20121;-79
2022/08/27 02:02:12;;;;;;;4.53;1.30;;;;;;;;;;5009817;28;20108;-80
2022/08/27 02:04:37;;;;;;;3.50;1.20;;;;;;;;;;5010067;28;20022;-79
2022/08/27 02:07:03;;;;;;;4.03;1.15;;;;;;;;;;5010102;28;20133;-79
2022/08/27 02:09:30;;;;;;;4.28;1.23;;;;;;;;;;5010117;28;20146;-80
2022/08/27 02:11:56;;;;;;;2.67;1.10;;;;;;;;;;5010089;28;20018;-79
2022/08/27 02:14:21;;;;;;;3.53;1.20;;;;;;;;;;5009827;28;20022;-79
2022/08/27 02:16:48;;;;;;;3.67;1.17;;;;;;;;;;5009959;28;20024;-79
2022/08/27 02:19:13;;;;;;;3.72;1.17;;;;;;;;;;5009946;28;20074;-79
2022/08/27 02:21:38;;;;;;;5.22;1.30;;;;;;;;;;5009564;28;20030;-79
2022/08/27 02:24:04;;;;;;;3.10;1.30;;;;;;;;;;5009757;28;20022;-78
2022/08/27 02:26:29;;;;;;;5.22;1.30;;;;;;;;;;5009680;28;20022;-78
2022/08/27 02:28:55;;;;;;;3.60;1.30;;;;;;;;;;5009538;28;20026;-78
2022/08/27 02:31:21;;;;;;;4.13;1.10;;;;;;;;;;5009573;28;20033;-79
2022/08/27 02:33:47;;;;;;;2.90;1.15;;;;;;;;;;5009830;28;20104;-76
2022/08/27 02:36:13;;;;;;;3.08;1.30;;;;;;;;;;5009409;28;20036;-76
2022/08/27 02:38:39;;;;;;;3.33;1.25;;;;;;;;;;5009529;28;20030;-75
2022/08/27 02:41:04;;;;;;;3.95;1.20;;;;;;;;;;5008742;28;20037;-76
2022/08/27 02:43:30;;;;;;;3.67;1.42;;;;;;;;;;5009201;28;20057;-75
2022/08/27 02:45:56;;;;;;;3.10;1.40;;;;;;;;;;5009613;28;20022;-75
2022/08/27 02:48:23;;;;;;;3.50;1.27;;;;;;;;;;5009523;28;20083;-75
2022/08/27 02:50:49;;;;;;;2.85;1.30;;;;;;;;;;5009185;28;20026;-75
2022/08/27 02:53:15;;;;;;;2.58;1.33;;;;;;;;;;5009303;28;20122;-75
2022/08/27 02:55:40;;;;;;;3.75;1.38;;;;;;;;;;5009069;28;20439;-73
2022/08/27 02:58:06;;;;;;;5.13;1.50;;;;;;;;;;5009007;28;20022;-74
2022/08/27 03:00:32;;;;;;;4.57;1.30;;;;;;;;;;5009311;28;20094;-74
2022/08/27 03:02:57;;;;;;;5.43;1.65;;;;;;;;;;5009185;28;20044;-75
2022/08/27 03:05:23;;;;;;;3.28;1.30;;;;;;;;;;5009209;28;20032;-73
2022/08/27 03:07:49;;;;;;;5.70;1.35;;;;;;;;;;5009101;28;20533;-73
2022/08/27 03:10:16;;;;;;;4.97;1.30;;;;;;;;;;4991405;28;20078;-73
2022/08/27 03:12:42;;;;;;;2.90;1.20;;;;;;;;;;5008666;28;20037;-74
2022/08/27 03:15:11;;;;;;;4.45;1.42;;;;;;;;;;5008776;28;20086;-72
2022/08/27 03:20:21;;;;;;;5.72;1.30;;;;;;;;;;5009330;28;20064;-78
2022/08/27 03:22:47;;;;;;;2.40;1.20;;;;;;;;;;5008765;28;20554;-78
2022/08/27 03:25:13;;;;;;;3.88;1.30;;;;;;;;;;5009008;28;20110;-78
2022/08/27 03:27:38;;;;;;;2.75;1.33;;;;;;;;;;5008413;28;20026;-80
2022/08/27 03:30:07;;;;;;;5.85;1.35;;;;;;;;;;5008577;28;20120;-78
2022/08/27 03:32:33;;;;;;;2.63;1.27;;;;;;;;;;5008659;28;20079;-78
2022/08/27 03:34:59;;;;;;;2.75;1.33;;;;;;;;;;5008762;28;20037;-78
2022/08/27 03:37:24;;;;;;;4.88;1.40;;;;;;;;;;5008632;28;20025;-78
2022/08/27 03:39:50;;;;;;;4.60;1.10;;;;;;;;;;5008717;28;20055;-80
2022/08/27 03:42:16;;;;;;;4.90;1.27;;;;;;;;;;4990660;28;20154;-77
2022/08/27 03:44:41;;;;;;;4.22;1.30;;;;;;;;;;5008411;28;20658;-78
2022/08/27 03:47:07;;;;;;;3.00;1.25;;;;;;;;;;5008469;28;20081;-80
2022/08/27 03:49:32;;;;;;;3.55;1.33;;;;;;;;;;5008430;28;20041;-79
2022/08/27 03:51:58;;;;;;;3.05;1.10;;;;;;;;;;5007626;28;20022;-80
2022/08/27 03:54:24;;;;;;;2.88;1.10;;;;;;;;;;5008356;28;20037;-79
2022/08/27 03:56:50;;;;;;;2.78;1.23;;;;;;;;;;5008368;28;20461;-79
2022/08/27 03:59:16;;;;;;;4.68;1.30;;;;;;;;;;5008530;28;20404;-80
2022/08/27 04:01:44;;;;;;;3.42;1.30;;;;;;;;;;5008010;28;20034;-80
2022/08/27 04:04:09;;;;;;;2.53;1.33;;;;;;;;;;5008112;28;20090;-79
2022/08/27 04:06:38;;;;;;;3.78;1.38;;;;;;;;;;5008060;28;20105;-74
2022/08/27 04:09:04;;;;;;;3.90;1.25;;;;;;;;;;5008139;28;20541;-76
2022/08/27 04:11:32;;;;;;;3.47;1.30;;;;;;;;;;5008090;28;20595;-78
2022/08/27 04:13:57;;;;;;;2.67;1.40;;;;;;;;;;5008087;28;20044;-78
2022/08/27 04:16:24;;;;;;;4.50;1.48;;;;;;;;;;5008038;28;20398;-79
2022/08/27 04:18:49;;;;;;;3.40;1.45;;;;;;;;;;5008065;28;20061;-77
2022/08/27 04:21:15;;;;;;;3.67;1.20;;;;;;;;;;5007899;28;20110;-78
2022/08/27 04:23:41;;;;;;;5.53;1.60;;;;;;;;;;5007743;28;20034;-78
2022/08/27 04:26:09;;;;;;;3.78;1.27;;;;;;;;;;5007907;28;20049;-78
2022/08/27 04:28:35;;;;;;;3.40;1.40;;;;;;;;;;5007953;28;20030;-78
2022/08/27 04:31:02;;;;;;;4.93;1.55;;;;;;;;;;5008675;28;20060;-78
2022/08/27 04:33:27;;;;;;;4.07;1.45;;;;;;;;;;5007858;28;20029;-78
2022/08/27 04:35:57;;;;;;;5.63;1.50;;;;;;;;;;5007725;28;20029;-78
2022/08/27 04:38:23;;;;;;;6.05;1.58;;;;;;;;;;5007640;28;20029;-78
2022/08/27 04:43:32;;;;;;;5.15;1.63;;;;;;;;;;5007410;28;20072;-78
2022/08/27 04:45:57;;;;;;;4.43;1.60;;;;;;;;;;5007631;28;20409;-78
2022/08/27 04:48:24;;;;;;;6.70;2.00;;;;;;;;;;5007811;28;20026;-78
2022/08/27 04:50:50;;;;;;;3.17;1.55;;;;;;;;;;5007647;28;20058;-78
2022/08/27 04:53:16;;;;;;;6.30;1.80;;;;;;;;;;5007487;28;20534;-78
2022/08/27 04:55:53;;;;;;;5.03;1.77;;;;;;;;;;5007273;28;20045;-78
2022/08/27 04:58:20;;;;;;;3.25;1.85;;;;;;;;;;5007276;28;20501;-78
2022/08/27 05:00:49;;;;;;;5.72;2.00;;;;;;;;;;5007430;28;20543;-78
2022/08/27 05:03:17;;;;;;;5.68;2.10;;;;;;;;;;5006987;28;20566;-78
2022/08/27 05:05:43;;;;;;;6.40;2.13;;;;;;;;;;5007638;28;20109;-78
2022/08/27 05:08:11;;;;;;;5.30;2.33;;;;;;;;;;5007503;28;20049;-78
2022/08/27 05:10:48;;;;;;;8.73;2.58;;;;;;;;;;5007414;28;20054;-78
2022/08/27 05:13:17;;;;;;;7.07;3.05;;;;;;;;;;5006970;28;20646;-78
2022/08/27 05:15:43;;;;;;;5.50;2.70;;;;;;;;;;5007056;28;20116;-78
2022/08/27 05:18:12;;;;;;;6.50;3.00;;;;;;;;;;5007138;28;20045;-79
2022/08/27 05:20:45;;;;;;;5.97;2.75;;;;;;;;;;5007326;28;20534;-78
2022/08/27 05:23:12;;;;;;;4.97;2.70;;;;;;;;;;5007021;28;20503;-78
2022/08/27 05:25:40;;;;;;;8.32;2.80;;;;;;;;;;5007157;28;20049;-78
2022/08/27 05:28:06;;;;;;;8.27;2.78;;;;;;;;;;5006919;28;20037;-79
2022/08/27 05:30:40;;;;;;;9.02;3.05;;;;;;;;;;5006930;28;20022;-78
2022/08/27 05:33:06;;;;;;;6.63;2.83;;;;;;;;;;5006922;28;20026;-79
2022/08/27 05:35:38;;;;;;;10.30;3.10;;;;;;;;;;5006940;28;20033;-79
2022/08/27 05:38:04;;;;;;;6.30;3.10;;;;;;;;;;5007018;28;20104;-79
2022/08/27 05:40:29;;;;;;;12.15;2.90;;;;;;;;;;5007138;28;20102;-78
2022/08/27 05:42:54;;;;;;;6.80;2.88;;;;;;;;;;5006786;28;20182;-79
2022/08/27 05:45:20;;;;;;;5.15;2.60;;;;;;;;;;5007018;28;20030;-80
2022/08/27 05:47:45;;;;;;;6.88;3.65;;;;;;;;;;5006801;28;20026;-79
2022/08/27 05:50:11;;;;;;;7.60;3.13;;;;;;;;;;5006778;28;20030;-79
2022/08/27 05:52:36;;;;;;;7.10;3.05;;;;;;;;;;5006533;28;20028;-79
2022/08/27 05:55:02;;;;;;;8.45;3.42;;;;;;;;;;5007183;28;20030;-79
2022/08/27 05:57:27;;;;;;;8.10;3.17;;;;;;;;;;5006709;28;20101;-76
2022/08/27 06:02:38;;;;;;;6.85;3.15;;;;;;;;;;5006942;28;20037;-76
2022/08/27 06:05:03;;;;;;;4.80;3.00;;;;;;;;;;5006926;28;20029;-84
2022/08/27 06:07:30;;;;;;;6.80;3.50;;;;;;;;;;5006668;28;20023;-73
2022/08/27 06:09:57;;;;;;;6.45;3.10;;;;;;;;;;5006445;28;20485;-80
2022/08/27 06:12:23;;;;;;;7.65;3.25;;;;;;;;;;5006313;28;20022;-80
2022/08/27 06:14:49;;;;;;;21.20;3.60;;;;;;;;;;5007206;28;20041;-83
2022/08/27 06:17:14;;;;;;;6.53;3.20;;;;;;;;;;5010438;28;20022;-83
2022/08/27 06:19:41;;;;;;;8.98;3.20;;;;;;;;;;5009926;28;20113;-80
2022/08/27 06:22:07;;;;;;;8.82;3.40;;;;;;;;;;5009736;28;20076;-76
2022/08/27 06:24:33;;;;;;;8.05;3.55;;;;;;;;;;5009615;28;20475;-74
2022/08/27 06:26:58;;;;;;;8.93;3.50;;;;;;;;;;5009497;28;20030;-76
2022/08/27 06:29:24;;;;;;;7.72;3.10;;;;;;;;;;5009515;28;20085;-77
2022/08/27 06:31:51;;;;;;;6.57;3.10;;;;;;;;;;5009827;28;20052;-77
2022/08/27 06:34:17;;;;;;;9.23;2.97;;;;;;;;;;5009552;28;20565;-75
2022/08/27 06:36:42;;;;;;;7.68;3.40;;;;;;;;;;5010027;28;20025;-76
2022/08/27 06:39:12;;;;;;;7.15;3.30;;;;;;;;;;5009580;28;20536;-78
2022/08/27 06:41:39;;;;;;;8.80;3.50;;;;;;;;;;5009519;28;20032;-88
2022/08/27 06:44:04;;;;;;;6.97;3.47;;;;;;;;;;5009222;28;20461;-81
2022/08/27 06:46:30;;;;;;;8.60;3.70;;;;;;;;;;5009673;28;20034;-81
2022/08/27 06:48:58;;;;;;;7.80;3.22;;;;;;;;;;5009522;28;20370;-82
2022/08/27 06:51:26;;;;;;;10.43;3.33;;;;;;;;;;5009480;28;20037;-79
2022/08/27 06:53:59;;;;;;;10.27;3.20;;;;;;;;;;5009495;28;20018;-83
2022/08/27 06:56:27;;;;;;;8.13;3.58;;;;;;;;;;5010758;28;20034;-89
2022/08/27 06:58:54;;;;;;;7.95;3.80;;;;;;;;;;4991889;28;20034;-85
2022/08/27 07:01:26;;;;;;;5.45;3.00;;;;;;;;;;5009158;28;20030;-81
2022/08/27 07:03:57;;;;;;;10.27;4.22;;;;;;;;;;4991453;28;20033;-85
2022/08/27 07:06:24;;;;;;;8.88;3.08;;;;;;;;;;5009404;28;20489;-76
2022/08/27 07:08:49;;;;;;;7.25;3.22;;;;;;;;;;5009178;28;20049;-77
2022/08/27 07:11:16;;;;;;;7.72;3.38;;;;;;;;;;5009232;28;20052;-76
2022/08/27 07:13:41;;;;;;;9.80;3.33;;;;;;;;;;5008700;28;20030;-82
2022/08/27 07:16:10;;;;;;;6.55;3.10;;;;;;;;;;5009068;28;20068;-75
2022/08/27 07:18:37;;;;;;;11.07;3.47;;;;;;;;;;5008960;28;20041;-75
2022/08/27 07:21:03;;;;;;;8.10;3.30;;;;;;;;;;5008976;28;20498;-75
2022/08/27 07:23:30;;;;;;;7.22;2.95;;;;;;;;;;5008717;28;20498;-74
2022/08/27 07:25:56;;;;;;;5.93;3.20;;;;;;;;;;5008883;28;20033;-75
2022/08/27 07:28:22;;;;;;;8.57;3.40;;;;;;;;;;5008599;28;20033;-74
2022/08/27 07:30:47;;;;;;;7.45;3.28;;;;;;;;;;5007926;28;20056;-74
2022/08/27 07:33:13;;;;;;;9.05;3.13;;;;;;;;;;5008408;28;20489;-74
2022/08/27 07:35:38;;;;;;;6.53;2.90;;;;;;;;;;5008685;28;20120;-74
2022/08/27 07:38:04;;;;;;;6.90;3.67;;;;;;;;;;5008627;28;20038;-73
2022/08/27 07:40:29;;;;;;;7.57;3.38;;;;;;;;;;5008475;28;20457;-73
2022/08/27 07:45:47;;;;;;;8.20;3.45;;;;;;;;;;5008744;28;20029;-74
2022/08/27 07:48:15;;;;;;;8.82;3.10;;;;;;;;;;5008435;28;20026;-74
2022/08/27 07:50:42;;;;;;;10.65;3.42;;;;;;;;;;5008311;28;20018;-74
2022/08/27 07:53:07;;;;;;;9.25;3.35;;;;;;;;;;5008303;28;20105;-74
2022/08/27 07:55:37;;;;;;;5.82;3.00;;;;;;;;;;5008336;28;20117;-74
2022/08/27 07:58:03;;;;;;;7.78;3.30;;;;;;;;;;5008306;28;20475;-74
2022/08/27 08:00:29;;;;;;;7.28;3.10;;;;;;;;;;4990745;28;20109;-74
2022/08/27 08:02:54;;;;;;;5.65;2.70;;;;;;;;;;5008131;28;20572;-73
2022/08/27 08:05:19;;;;;;;6.63;2.83;;;;;;;;;;5007811;28;20107;-73
2022/08/27 08:07:45;;;;;;;8.43;3.38;;;;;;;;;;5008101;28;20030;-73
2022/08/27 08:10:11;;;;;;;7.47;2.83;;;;;;;;;;5008090;28;20029;-74
2022/08/27 08:12:38;;;;;;;6.68;3.03;;;;;;;;;;5008073;28;20110;-73
2022/08/27 08:15:05;;;;;;;8.85;3.55;;;;;;;;;;5007914;28;20030;-74
2022/08/27 08:17:33;;;;;;;5.60;2.95;;;;;;;;;;5008237;28;20386;-73
2022/08/27 08:19:58;;;;;;;9.48;3.17;;;;;;;;;;5008211;28;20113;-74
2022/08/27 08:22:23;;;;;;;7.47;3.40;;;;;;;;;;5008113;28;20158;-74
2022/08/27 08:24:49;;;;;;;10.55;3.08;;;;;;;;;;5007711;28;20030;-74
2022/08/27 08:27:14;;;;;;;6.05;2.70;;;;;;;;;;5007801;28;20507;-74
2022/08/27 08:29:40;;;;;;;7.63;3.08;;;;;;;;;;5007696;28;20032;-75
2022/08/27 08:32:06;;;;;;;8.93;3.10;;;;;;;;;;5007666;28;20035;-78
2022/08/27 08:34:32;;;;;;;6.43;2.92;;;;;;;;;;5009806;28;20026;-79
2022/08/27 08:36:57;;;;;;;7.55;2.97;;;;;;;;;;5006862;28;20095;-73
2022/08/27 08:39:23;;;;;;;6.97;2.88;;;;;;;;;;5010267;28;20022;-73
2022/08/27 08:41:58;;;;;;;6.15;2.90;;;;;;;;;;5009242;28;20049;-77
2022/08/27 08:44:43;;;;;;;7.68;3.17;;;;;;;;;;4989502;28;20042;-78
2022/08/27 08:47:14;;;;;;;9.00;3.10;;;;;;;;;;5007636;28;20042;-75
2022/08/27 08:49:58;;;;;;;;;;;;;;;;;;5007944;28;20029;-76
2022/08/27 08:52:42;;;;;;;6.57;2.67;;;;;;;;;;5007364;28;19914;-73
2022/08/27 08:55:07;;;;;;;6.97;2.63;;;;;;;;;;5007562;28;20420;-75
2022/08/27 08:57:47;;;;;;;4.60;2.90;;;;;;;;;;4989605;28;20613;-73
2022/08/27 09:00:13;;;;;;;5.67;2.80;;;;;;;;;;5013441;28;20029;-72
2022/08/27 09:02:43;;;;;;;6.78;2.80;;;;;;;;;;5014966;28;20191;-73
2022/08/27 09:05:09;;;;;;;4.18;2.47;;;;;;;;;;5010911;28;20360;-75
2022/08/27 09:07:45;;;;;;;4.68;2.50;;;;;;;;;;5016475;28;20030;-73
2022/08/27 09:10:20;;;;;;;5.95;2.72;;;;;;;;;;5017418;28;20341;-74
2022/08/27 09:12:45;;;;;;;6.13;2.63;;;;;;;;;;5013671;28;20030;-72
2022/08/27 09:15:21;;;;;;;5.90;2.58;;;;;;;;;;5016891;28;20037;-75
2022/08/27 09:17:47;;;;;;;5.38;2.60;;;;;;;;;;5011665;28;20017;-74
2022/08/27 09:20:17;;;;;;;5.50;2.58;;;;;;;;;;5015972;28;20029;-73
2022/08/27 09:23:05;;;;;;;6.60;2.67;;;;;;;;;;5018536;28;20317;-74
2022/08/27 09:25:40;;;;;;;7.55;2.83;;;;;;;;;;5001008;28;20037;-71
2022/08/27 09:31:06;;;;;;;6.43;2.85;;;;;;;;;;5009853;28;20029;-76
2022/08/27 09:33:31;;;;;;;5.25;2.60;;;;;;;;;;5017017;28;20022;-79
2022/08/27 09:36:01;;;;;;;4.80;2.45;;;;;;;;;;5010022;28;20106;-78
2022/08/27 09:38:35;;;;;;;7.68;2.53;;;;;;;;;;5018426;28;20071;-80
2022/08/27 09:41:08;;;;;;;5.00;2.30;;;;;;;;;;5009675;28;20087;-78
2022/08/27 09:43:35;;;;;;;6.93;2.55;;;;;;;;;;5009310;28;20042;-71
2022/08/27 09:46:24;;;;;;;6.00;2.65;;;;;;;;;;5007527;28;20046;-71
2022/08/27 09:48:50;;;;;;;6.15;2.70;;;;;;;;;;5015071;28;20050;-74
2022/08/27 09:51:19;;;;;;;5.80;2.40;;;;;;;;;;5020662;28;20375;-83
2022/08/27 09:53:49;;;;;;;5.72;2.53;;;;;;;;;;5021473;28;20094;-74
2022/08/27 09:56:36;;;;;;;8.48;2.97;;;;;;;;;;5020790;28;20030;-76
2022/08/27 09:59:18;;;;;;;4.45;2.65;;;;;;;;;;5020530;28;20022;-75
2022/08/27 10:02:01;;;;;;;6.70;2.92;;;;;;;;;;5012722;28;20022;-74
2022/08/27 10:04:35;;;;;;;5.22;2.72;;;;;;;;;;5007449;28;20423;-76
2022/08/27 10:07:32;;;;;;;5.35;2.70;;;;;;;;;;5008896;28;20105;-78
2022/08/27 10:10:10;;;;;;;10.90;2.75;;;;;;;;;;5016087;28;20049;-85
2022/08/27 10:12:55;;;;;;;5.95;2.30;;;;;;;;;;5000375;28;20045;-79
2022/08/27 10:15:22;;;;;;;5.93;2.70;;;;;;;;;;5011529;28;20415;-76
2022/08/27 10:18:10;;;;;;;5.60;2.70;;;;;;;;;;5016105;28;20348;-80
2022/08/27 10:20:46;;;;;;;5.22;2.72;;;;;;;;;;5012593;28;20124;-81
2022/08/27 10:23:27;;;;;;;4.93;2.45;;;;;;;;;;5017003;28;20059;-77
2022/08/27 10:26:06;;;;;;;4.85;2.45;;;;;;;;;;5015561;28;20026;-76
2022/08/27 10:29:13;;;;;;;5.65;2.45;;;;;;;;;;5014882;28;20043;-80
2022/08/27 10:31:41;;;;;;;4.53;2.47;;;;;;;;;;5011546;28;20040;-79
2022/08/27 10:34:37;;;;;;;6.18;2.80;;;;;;;;;;5011551;28;20146;-79
2022/08/27 10:37:57;;;;;;;7.70;2.47;;;;;;;;;;4998503;28;20037;-80
2022/08/27 10:40:38;;;;;;;5.23;2.60;;;;;;;;;;5009603;28;20322;-79
2022/08/27 10:43:04;;;;;;;4.28;2.20;;;;;;;;;;5018420;28;20094;-77
2022/08/27 10:45:41;;;;;;;5.22;2.00;;;;;;;;;;5020003;28;20038;-77
2022/08/27 10:48:24;;;;;;;6.63;2.17;;;;;;;;;;5015727;28;20113;-83
2022/08/27 10:51:10;;;;;;;6.43;2.30;;;;;;;;;;5015373;28;20033;-78
2022/08/27 10:53:57;;;;;;;7.53;2.20;;;;;;;;;;4999009;28;20279;-81
2022/08/27 10:56:42;;;;;;;5.43;1.90;;;;;;;;;;5019442;28;20034;-79
2022/08/27 10:59:20;;;;;;;4.15;2.00;;;;;;;;;;5020437;28;20114;-78
2022/08/27 11:01:56;;;;;;;5.35;1.80;;;;;;;;;;4998946;28;20034;-76
2022/08/27 11:04:36;;;;;;;4.80;2.20;;;;;;;;;;5008845;28;20101;-75
2022/08/27 11:07:03;;;;;;;;;;;;;;;;;;4992023;28;20029;-76
2022/08/27 11:09:48;;;;;;;4.72;1.90;;;;;;;;;;5016162;28;19917;-75
2022/08/27 11:12:20;;;;;;;5.97;2.20;;;;;;;;;;5009181;28;20499;-77
2022/08/27 11:14:52;;;;;;;4.18;1.80;;;;;;;;;;5008983;28;20053;-75
2022/08/27 11:17:34;;;;;;;3.22;1.67;;;;;;;;;;5015673;28;20026;-78
2022/08/27 11:20:24;;;;;;;5.60;1.80;;;;;;;;;;5020341;28;20061;-78
2022/08/27 11:23:40;;;;;;;5.20;1.80;;;;;;;;;;5017604;28;20083;-76
2022/08/27 11:26:06;;;;;;;4.20;1.92;;;;;;;;;;5008518;28;20112;-76
2022/08/27 11:28:38;;;;;;;3.75;1.70;;;;;;;;;;5008708;28;20113;-76
2022/08/27 11:31:08;;;;;;;3.58;1.85;;;;;;;;;;5008894;28;20030;-77
2022/08/27 11:34:09;;;;;;;;;;;;;;;;;;5009277;28;20474;-77
2022/08/27 11:37:13;;;;;;;7.32;2.20;;;;;;;;;;5008751;28;20001;-77
2022/08/27 11:39:39;;;;;;;3.75;1.30;;;;;;;;;;5010246;28;20083;-77
2022/08/27 11:42:16;;;;;;;3.92;1.50;;;;;;;;;;5009939;28;20030;-74
2022/08/27 11:44:45;;;;;;;7.75;1.60;;;;;;;;;;5011332;28;20050;-83
2022/08/27 11:47:12;;;;;;;5.38;1.80;;;;;;;;;;5009315;28;20390;-74
2022/08/27 11:49:48;;;;;;;2.25;1.60;;;;;;;;;;5068779;28;20510;-80
2022/08/27 11:52:39;;;;;;;4.78;1.50;;;;;;;;;;5112097;28;20090;-78
2022/08/27 11:55:15;;;;;;;2.42;1.40;;;;;;;;;;5115398;28;20082;-75
2022/08/27 11:57:41;;;;;;;3.33;1.50;;;;;;;;;;5116182;28;20501;-71
2022/08/27 12:00:34;;;;;;;4.18;1.73;;;;;;;;;;5113311;28;20024;-76
2022/08/27 12:03:21;;;;;;;3.50;1.70;;;;;;;;;;5100946;28;20043;-74
2022/08/27 12:05:53;;;;;;;4.30;1.70;;;;;;;;;;5115947;28;20020;-74
2022/08/27 12:08:21;;;;;;;2.95;1.73;;;;;;;;;;5122248;28;20116;-73
2022/08/27 12:10:52;;;;;;;5.00;1.70;;;;;;;;;;5121801;28;20031;-73
2022/08/27 12:13:39;;;;;;;4.22;1.60;;;;;;;;;;5116724;28;20023;-77
2022/08/27 12:16:15;;;;;;;4.32;1.50;;;;;;;;;;5118872;28;20047;-77
2022/08/27 12:18:58;;;;;;;4.18;1.67;;;;;;;;;;5122321;28;20020;-75
2022/08/27 12:21:32;;;;;;;3.03;1.60;;;;;;;;;;5122284;28;20023;-76
2022/08/27 12:24:03;;;;;;;2.55;1.58;;;;;;;;;;5122482;28;20433;-75
2022/08/27 12:26:31;;;;;;;4.65;1.70;;;;;;;;;;5122286;28;20091;-79
2022/08/27 12:29:24;;;;;;;3.75;1.50;;;;;;;;;;5122410;28;20083;-75
2022/08/27 12:32:01;;;;;;;2.28;1.40;;;;;;;;;;5065995;28;20318;-75
2022/08/27 12:34:28;;;;;;;3.35;1.60;;;;;;;;;;4999148;28;20258;-75
2022/08/27 12:36:55;;;;;;;2.83;1.50;;;;;;;;;;5017432;28;20337;-74
2022/08/27 12:39:31;;;;;;;2.80;1.60;;;;;;;;;;5001526;28;20026;-75
2022/08/27 12:41:56;;;;;;;3.30;1.50;;;;;;;;;;5007666;28;20416;-73
2022/08/27 12:44:27;;;;;;;5.47;1.60;;;;;;;;;;5007469;28;20103;-74
2022/08/27 12:47:04;;;;;;;7.05;1.70;;;;;;;;;;5001974;28;20062;-75
2022/08/27 12:49:38;;;;;;;4.30;1.70;;;;;;;;;;4988463;28;20654;-74
2022/08/27 12:52:16;;;;;;;3.67;1.70;;;;;;;;;;4997919;28;20032;-75
2022/08/27 12:54:57;;;;;;;2.58;1.60;;;;;;;;;;5007720;28;20034;-74
2022/08/27 12:57:48;;;;;;;3.85;1.60;;;;;;;;;;5007430;28;20040;-73
2022/08/27 13:00:21;;;;;;;3.90;1.50;;;;;;;;;;5009695;28;20128;-74
2022/08/27 13:02:46;;;;;;;6.70;1.73;;;;;;;;;;5007899;28;20049;-74
2022/08/27 13:05:12;;;;;;;3.28;1.50;;;;;;;;;;5007233;28;20511;-75
2022/08/27 13:07:41;;;;;;;3.67;1.58;;;;;;;;;;5007480;28;20441;-75
2022/08/27 13:10:18;;;;;;;2.60;1.50;;;;;;;;;;5012555;28;20030;-77
2022/08/27 13:12:45;;;;;;;4.53;1.70;;;;;;;;;;5008636;28;20038;-81
2022/08/27 13:15:13;;;;;;;3.15;1.60;;;;;;;;;;5011324;28;20034;-77
2022/08/27 13:17:41;;;;;;;3.53;1.70;;;;;;;;;;5014954;28;20022;-80
2022/08/27 13:20:18;;;;;;;3.22;1.60;;;;;;;;;;5030180;28;20038;-73
2022/08/27 13:22:44;;;;;;;5.13;1.70;;;;;;;;;;5055053;28;20038;-77
2022/08/27 13:25:35;;;;;;;2.53;1.40;;;;;;;;;;5011725;28;20045;-76
2022/08/27 13:28:13;;;;;;;2.65;1.58;;;;;;;;;;5010021;28;20450;-75
2022/08/27 13:30:43;;;;;;;3.63;1.45;;;;;;;;;;5011879;28;20442;-75
2022/08/27 13:33:14;;;;;;;3.80;1.70;;;;;;;;;;5011123;28;20032;-75
2022/08/27 13:35:42;;;;;;;4.20;1.63;;;;;;;;;;5004934;28;20037;-75
2022/08/27 13:38:08;;;;;;;3.92;1.50;;;;;;;;;;5004673;28;20407;-74
2022/08/27 13:40:37;;;;;;;4.07;1.60;;;;;;;;;;5011648;28;20505;-76
2022/08/27 13:43:08;;;;;;;2.67;1.48;;;;;;;;;;5014990;28;20038;-75
2022/08/27 13:45:34;;;;;;;6.07;1.70;;;;;;;;;;5013374;28;20034;-75
2022/08/27 13:48:01;;;;;;;3.95;1.45;;;;;;;;;;5020364;28;20030;-75
2022/08/27 13:50:29;;;;;;;2.85;1.50;;;;;;;;;;5003394;28;20036;-75
2022/08/27 13:55:53;;;;;;;4.55;1.35;;;;;;;;;;5009978;28;20120;-83
2022/08/27 13:58:27;;;;;;;4.78;1.50;;;;;;;;;;5008537;28;20117;-79
2022/08/27 14:00:53;;;;;;;4.53;1.40;;;;;;;;;;5007841;28;20113;-82
2022/08/27 14:03:33;;;;;;;3.30;1.52;;;;;;;;;;5006762;28;20113;-83
2022/08/27 14:06:00;;;;;;;2.90;1.30;;;;;;;;;;5006963;28;20025;-84
2022/08/27 14:08:34;;;;;;;3.70;1.48;;;;;;;;;;5010155;28;20037;-77
2022/08/27 14:11:05;;;;;;;5.88;1.65;;;;;;;;;;5012217;28;20496;-82
2022/08/27 14:13:45;;;;;;;3.33;1.40;;;;;;;;;;5016909;28;20018;-81
2022/08/27 14:16:20;;;;;;;2.80;1.40;;;;;;;;;;5002704;28;20179;-77
2022/08/27 14:18:52;;;;;;;2.72;1.40;;;;;;;;;;5001767;28;20218;-76
2022/08/27 14:21:18;;;;;;;3.17;1.60;;;;;;;;;;5012509;28;20021;-75
2022/08/27 14:23:43;;;;;;;2.55;1.50;;;;;;;;;;4992432;28;20033;-78
2022/08/27 14:26:09;;;;;;;3.80;1.60;;;;;;;;;;5019874;28;20026;-80
2022/08/27 14:28:35;;;;;;;3.05;1.45;;;;;;;;;;5020666;28;20050;-80
2022/08/27 14:31:01;;;;;;;2.95;1.27;;;;;;;;;;5020548;28;20052;-86
2022/08/27 14:33:26;;;;;;;2.75;1.33;;;;;;;;;;5003574;28;20038;-83
2022/08/27 14:35:52;;;;;;;2.20;1.45;;;;;;;;;;5019922;28;20030;-84
2022/08/27 14:38:21;;;;;;;4.30;1.60;;;;;;;;;;5020962;28;20022;-78
2022/08/27 14:40:49;;;;;;;3.95;1.35;;;;;;;;;;5021165;28;20026;-76
2022/08/27 14:43:15;;;;;;;5.85;1.50;;;;;;;;;;5020312;28;20334;-77
2022/08/27 14:45:42;;;;;;;3.05;1.40;;;;;;;;;;5020767;28;20053;-77
2022/08/27 14:48:12;;;;;;;3.55;1.60;;;;;;;;;;5020761;28;20091;-77
2022/08/27 14:50:37;;;;;;;3.03;1.48;;;;;;;;;;5018523;28;20030;-77
2022/08/27 14:53:03;;;;;;;3.85;1.70;;;;;;;;;;5002739;28;20107;-77
2022/08/27 14:55:30;;;;;;;4.03;1.52;;;;;;;;;;5019912;28;20274;-77
2022/08/27 14:57:56;;;;;;;4.30;1.50;;;;;;;;;;5007328;28;20030;-77
2022/08/27 15:00:21;;;;;;;3.05;1.45;;;;;;;;;;5006946;28;20074;-77
2022/08/27 15:02:48;;;;;;;3.28;1.60;;;;;;;;;;5000782;28;20030;-77
2022/08/27 15:05:14;;;;;;;5.85;1.50;;;;;;;;;;5019509;28;20025;-77
2022/08/27 15:07:39;;;;;;;3.97;1.77;;;;;;;;;;5017344;28;20036;-77
2022/08/27 15:10:05;;;;;;;2.58;1.38;;;;;;;;;;5015661;28;20021;-77
2022/08/27 15:12:31;;;;;;;2.88;1.40;;;;;;;;;;5020315;28;20097;-77
2022/08/27 15:14:56;;;;;;;3.70;1.55;;;;;;;;;;5020233;28;20038;-77
2022/08/27 15:17:22;;;;;;;2.72;1.55;;;;;;;;;;5019874;28;20026;-77
2022/08/27 15:19:47;;;;;;;3.90;1.50;;;;;;;;;;5001424;28;20416;-77